Tiempo atmosférico en la estación meteorológica de Cabo de Gata, Almería (42 m.)



Fecha
DESCASC
Temp. máxima en grados centígrados (hora)
DESCASC
Temp. mínima en grados centígrados (hora)
DESCASC
Temp. media en grados centígrados
DESCASC
Racha de viento máxima en m/sg (hora)
DESCASC
Velocidad máxima media en intervalos de 10 minutos(hora)
DESCASC
Precipitaciones diarias en mm
DESCASC
Precipitaciones de 00:00 a 06:00 en mm
DESCASC
Precipitaciones de 06:00 a 12:00 en mm
DESCASC
Precipitaciones de 12:00 a 18:00 en mm
DESCASC
Precipitaciones de 18:00 a 24:00 en mm
DESCASC
06-07-2020 27.3 (16:20) 23.1 (06:20) 25.2 11.94 (12:40) 9.44 (14:00) -- -- -- -- --
05-07-2020 29.7 (12:10) 25.6 (07:00) 27.7 17.5 (17:30) 12.78 (15:50) -- -- -- -- --
04-07-2020 27.6 (16:00) 23.9 (06:00) 25.8 17.22 (16:40) 10.83 (14:30) -- -- -- -- --
03-07-2020 27.2 (12:50) 22.2 (04:50) 24.7 17.5 (11:20) 12.78 (14:10) -- -- -- -- --
02-07-2020 28 (15:50) 22.3 (00:00) 25.1 13.61 (13:50) 8.89 (01:40) -- -- -- -- --
01-07-2020 27.7 (15:50) 22.4 (00:00) 25.1 11.94 (21:50) 8.33 (05:00) -- -- -- -- --
30-06-2020 28.1 (14:20) 23.1 (00:00) 25.6 18.06 (12:50) 12.22 (12:50) -- -- -- -- --
29-06-2020 26.7 (19:20) 21.5 (00:00) 24.1 16.11 (14:20) 12.5 (14:30) -- -- -- -- --
28-06-2020 25.8 (11:00) 21 (00:00) 23.4 13.61 (12:50) 10.83 (12:20) -- -- -- -- --
27-06-2020 27 (16:30) 20.7 (00:00) 23.9 6.94 (19:40) 4.72 (22:40) -- -- -- -- --
26-06-2020 26.9 (16:00) 21.5 (00:00) 24.2 7.22 (01:40) 5.28 (18:30) -- -- -- -- --
25-06-2020 27.8 (12:30) 22.9 (00:00) 25.3 8.89 (23:30) 5.83 (04:30) -- -- -- -- --
24-06-2020 29.4 (18:40) 22.2 (00:00) 25.8 24.17 (11:50) 16.11 (10:20) -- -- -- -- --
23-06-2020 29.6 (10:20) 24.9 (00:00) 27.3 25 (20:00) 15.83 (20:00) -- -- -- -- --
22-06-2020 30.6 (12:50) 21.8 (00:00) 26.2 21.39 (21:00) 16.67 (21:00) -- -- -- -- --
21-06-2020 26.5 (15:50) 20.3 (00:00) 23.4 8.61 (19:20) 5.56 (05:20) -- -- -- -- --
20-06-2020 23.3 (17:00) 19 (00:00) 21.1 15.28 (12:40) 10 (15:30) -- -- -- -- --
19-06-2020 23.9 (12:30) 19.5 (00:00) 21.7 11.39 (01:30) 6.94 (01:40) -- -- -- -- --
18-06-2020 23.4 (12:50) 18.5 (00:00) 20.9 13.61 (16:40) 10.56 (15:50) -- -- -- -- --
17-06-2020 22.5 (20:00) 18.1 (00:00) 20.3 15.56 (12:40) 12.22 (12:30) -- -- -- -- --
16-06-2020 23.7 (14:30) 17.5 (00:00) 20.6 14.72 (23:10) 10.83 (23:10) -- -- -- -- --
15-06-2020 23 (15:30) 16.7 (00:00) 19.9 10.28 (18:00) 6.67 (03:40) -- -- -- -- --
14-06-2020 22.6 (15:20) 17 (00:00) 19.8 14.17 (21:30) 9.17 (21:30) -- -- -- -- --
13-06-2020 22.4 (14:00) 16.2 (00:00) 19.3 15.28 (00:40) 8.89 (02:20) -- -- -- -- --
12-06-2020 21.1 (14:40) 16.8 (00:00) 18.9 19.17 (03:00) 15.28 (03:00) -- -- -- -- --
11-06-2020 21.7 (11:10) 17.8 (00:00) 19.8 20 (20:10) 13.33 (22:40) -- -- -- -- --
10-06-2020 25 (16:10) 18 (00:00) 21.5 7.22 (23:50) 5 (04:30) -- -- -- -- --
09-06-2020 23.9 (14:00) 17.5 (00:00) 20.7 6.39 (02:10) 4.17 (02:30) -- -- -- -- --
08-06-2020 22.8 (13:10) 18.1 (06:50) 20.4 14.44 (00:10) 10.83 (00:10) -- -- -- -- --

Gráficas

Temp. máximas Temp. mínimas Temp. medias Precipitaciones Rachas de viento máximas Velocidades máximas media en intervalos de 10 minutos

Datos horarios

Fecha y hora oficial Temperatura (ºC) Velocidad del viento (km/h) Dirección del viento Racha (km/h) Dirección de racha Precipitación (mm) Presión (hPa) Tendencia (hPa) Humedad (%)
2020-07-07 23:00:00 25.3 5 Oeste 14 Oeste -- -- -- 82
2020-07-07 22:00:00 25.6 0 Calma 14 Este -- -- -- 80
2020-07-07 21:00:00 26.2 9 Este 14 Este -- -- -- 78
2020-07-07 20:00:00 26.6 10 Este 20 Este -- -- -- 77
2020-07-07 19:00:00 26.9 12 Este 18 Este -- -- -- 76
2020-07-07 18:00:00 27.3 8 Este 14 Sudeste -- -- -- 74
2020-07-07 17:00:00 28.3 6 Este 13 Este -- -- -- 71
2020-07-07 16:00:00 28.9 6 Este 18 Este -- -- -- 69
2020-07-07 15:00:00 28.5 13 Este 24 Este -- -- -- 67
2020-07-07 14:00:00 28 16 Este 26 Este -- -- -- 68
2020-07-07 13:00:00 28.1 16 Este 25 Este -- -- -- 69
2020-07-07 12:00:00 28.5 12 Este 20 Este -- -- -- 68
2020-07-07 11:00:00 28.5 5 Este 10 Este -- -- -- 65
2020-07-07 10:00:00 27.6 6 Este 9 Este -- -- -- 66
2020-07-07 09:00:00 26.2 4 Este 14 Este -- -- -- 68
2020-07-07 08:00:00 23.9 2 Nordeste 13 Noroeste -- -- -- 58
2020-07-07 07:00:00 22.5 8 Noroeste 13 Norte -- -- -- 66
2020-07-07 06:00:00 23.6 3 Norte 5 Este -- -- -- 70
2020-07-07 05:00:00 23.6 3 Este 6 Norte -- -- -- 66
2020-07-07 04:00:00 23.5 4 Norte 12 Oeste -- -- -- 67
2020-07-07 03:00:00 22.9 6 Noroeste 11 Noroeste -- -- -- 61
2020-07-07 02:00:00 23.5 5 Noroeste 9 Oeste -- -- -- 74
2020-07-07 01:00:00 23.9 3 Oeste 5 Oeste -- -- -- 78
2020-07-07 00:00:00 24.6 0 Calma 8 Oeste -- -- -- 79
2020-07-06 23:00:00 25 2 Sur 19 Este -- -- -- 79
2020-07-06 22:00:00 24.8 11 Este 25 Este -- -- -- 79
2020-07-06 21:00:00 24.8 19 Este 31 Sudeste -- -- -- 81
2020-07-06 20:00:00 24.8 28 Este 33 Este -- -- -- 82
2020-07-06 19:00:00 25.5 14 Este 20 Este -- -- -- 81
2020-07-06 18:00:00 25.3 5 Sudeste 9 Este -- -- -- 79
2020-07-06 17:00:00 26.2 6 Sudeste 17 Este -- -- -- 75
2020-07-06 16:00:00 26.9 9 Este 30 Este -- -- -- 76
2020-07-06 15:00:00 26 23 Este 39 Este -- -- -- 78
2020-07-06 14:00:00 25.5 34 Este 41 Este -- -- -- 78
2020-07-06 13:00:00 25.4 33 Este 43 Este -- -- -- 76
2020-07-06 12:00:00 26 30 Este 35 Este -- -- -- 71
2020-07-06 11:00:00 26.9 18 Este 26 Este -- -- -- 67
2020-07-06 10:00:00 26.4 18 Este 23 Este -- -- -- 63
2020-07-06 09:00:00 26.6 0 Calma 10 Oeste -- -- -- 53
2020-07-06 08:00:00 24.3 5 Norte 10 Norte -- -- -- 50
2020-07-06 07:00:00 23.3 5 Este 8 Este -- -- -- 61
2020-07-06 06:00:00 23.3 0 Calma 4 Este -- -- -- 56
2020-07-06 05:00:00 23.7 3 Este 6 Este -- -- -- 57
2020-07-06 04:00:00 23.7 0 Calma 11 Noroeste -- -- -- 48
2020-07-06 03:00:00 24.2 4 Este 7 Este -- -- -- 64
2020-07-06 02:00:00 24.6 3 Oeste 12 Oeste -- -- -- 46
2020-07-06 01:00:00 25.7 4 Oeste 13 Norte -- -- -- 48
2020-07-06 00:00:00 26.3 5 Oeste 22 Este -- -- -- 40
2020-07-05 23:00:00 27 13 Nordeste 47 Nordeste -- -- -- 39
2020-07-05 22:00:00 26.7 31 Nordeste 46 Nordeste -- -- -- 44
2020-07-05 21:00:00 26.3 29 Este 53 Nordeste -- -- -- 53
2020-07-05 20:00:00 26.7 33 Este 60 Nordeste -- -- -- 54
2020-07-05 19:00:00 27.3 39 Este 57 Nordeste -- -- -- 51
2020-07-05 18:00:00 27.8 36 Este 63 Este -- -- -- 49
2020-07-05 17:00:00 28.2 41 Este 60 Este -- -- -- 46
2020-07-05 16:00:00 28.7 44 Este 62 Nordeste -- -- -- 44
2020-07-05 15:00:00 29.3 39 Nordeste 54 Nordeste -- -- -- 41
2020-07-05 14:00:00 29.3 33 Nordeste 51 Nordeste -- -- -- 44
2020-07-05 13:00:00 29.4 41 Nordeste 63 Este -- -- -- 41
2020-07-05 12:00:00 29.5 37 Nordeste 53 Nordeste -- -- -- 36
2020-07-05 11:00:00 29.3 32 Nordeste 51 Nordeste -- -- -- 36
2020-07-05 10:00:00 28.4 24 Nordeste 49 Este -- -- -- 39
2020-07-05 09:00:00 27.4 22 Nordeste 42 Nordeste -- -- -- 42
2020-07-05 08:00:00 26.1 23 Nordeste 48 Nordeste -- -- -- 48
2020-07-05 07:00:00 25.6 19 Nordeste 40 Este -- -- -- 51
2020-07-05 06:00:00 26 19 Norte 41 Nordeste -- -- -- 48
2020-07-05 05:00:00 26.2 14 Norte 38 Nordeste -- -- -- 45
2020-07-05 04:00:00 26.3 12 Norte 31 Nordeste -- -- -- 45
2020-07-05 03:00:00 26.6 11 Norte 35 Este -- -- -- 48
2020-07-05 02:00:00 26.4 9 Oeste 29 Nordeste -- -- -- 51
2020-07-05 01:00:00 26.4 18 Nordeste 43 Este -- -- -- 52
2020-07-05 00:00:00 25.7 7 Oeste 23 Este -- -- -- 56
2020-07-04 23:00:00 25.7 6 Oeste 26 Este -- -- -- 57
2020-07-04 22:00:00 25.9 7 Oeste 36 Este -- -- -- 57
2020-07-04 21:00:00 26 23 Nordeste 45 Este -- -- -- 60
2020-07-04 20:00:00 25.9 30 Este 53 Este -- -- -- 67
2020-07-04 19:00:00 26.1 35 Este 51 Nordeste -- -- -- 66
2020-07-04 18:00:00 26.5 35 Este 57 Este -- -- -- 63
2020-07-04 17:00:00 27.2 33 Este 62 Este -- -- -- 59
2020-07-04 16:00:00 27.6 29 Este 53 Este -- -- -- 62
2020-07-04 15:00:00 27.2 34 Nordeste 57 Este -- -- -- 66
2020-07-04 14:00:00 27.1 35 Nordeste 51 Este -- -- -- 69
2020-07-04 13:00:00 26.6 27 Este 53 Sudeste -- -- -- 74
2020-07-04 12:00:00 25.7 30 Este 45 Este -- -- -- 78
2020-07-04 11:00:00 25.3 21 Este 40 Este -- -- -- 80
2020-07-04 10:00:00 24.9 23 Este 45 Este -- -- -- 82
2020-07-04 09:00:00 24.2 18 Nordeste 39 Nordeste -- -- -- 83
2020-07-04 08:00:00 24.2 13 Este 35 Nordeste -- -- -- 83
2020-07-04 07:00:00 23.9 9 Norte 40 Nordeste -- -- -- 82
2020-07-04 06:00:00 23.9 3 Sudeste 24 Este -- -- -- 81
2020-07-04 05:00:00 24.1 10 Nordeste 31 Este -- -- -- 80
2020-07-04 04:00:00 24.4 11 Nordeste 23 Nordeste -- -- -- 77
2020-07-04 03:00:00 24.4 6 Nordeste 13 Este -- -- -- 75
2020-07-04 02:00:00 24.4 3 Norte 17 Nordeste -- -- -- 78
2020-07-04 01:00:00 24.7 6 Norte 36 Nordeste -- -- -- 80
2020-07-04 00:00:00 24.8 16 Nordeste 31 Este -- -- -- 79
2020-07-03 23:00:00 25.3 4 Oeste 20 Este -- -- -- 77
2020-07-03 22:00:00 26 12 Este 31 Nordeste -- -- -- 73
2020-07-03 21:00:00 26.5 20 Nordeste 34 Sudeste -- -- -- 68
2020-07-03 20:00:00 26.7 21 Este 36 Este -- -- -- 70
2020-07-03 19:00:00 25.5 28 Este 39 Este -- -- -- 82
2020-07-03 18:00:00 25.2 27 Este 35 Este -- -- -- 84
2020-07-03 17:00:00 25.7 25 Este 40 Este -- -- -- 83
2020-07-03 16:00:00 25.6 31 Este 46 Este -- -- -- 82
2020-07-03 15:00:00 25.8 36 Este 60 Este -- -- -- 79
2020-07-03 14:00:00 26.4 42 Este 55 Este -- -- -- 75
2020-07-03 13:00:00 27 33 Este 58 Nordeste -- -- -- 72
2020-07-03 12:00:00 26.7 35 Este 63 Este -- -- -- 74
2020-07-03 11:00:00 25.9 32 Este 56 Nordeste -- -- -- 79
2020-07-03 10:00:00 25.5 35 Este 54 Este -- -- -- 78
2020-07-03 09:00:00 24.8 28 Este 56 Nordeste -- -- -- 81
2020-07-03 08:00:00 24.1 41 Nordeste 56 Nordeste -- -- -- 81
2020-07-03 07:00:00 24.8 19 Nordeste 37 Nordeste -- -- -- 76
2020-07-03 06:00:00 23.5 21 Este 40 Este -- -- -- 84
2020-07-03 05:00:00 22.7 18 Este 32 Este -- -- -- 84
2020-07-03 04:00:00 22.7 4 Este 10 Este -- -- -- 81
2020-07-03 03:00:00 22.7 0 Calma 22 Oeste -- -- -- 80
2020-07-03 02:00:00 23.2 18 Oeste 33 Oeste -- -- -- 78
2020-07-03 01:00:00 23.3 22 Oeste 39 Noroeste -- -- -- 77
2020-07-03 00:00:00 23.6 14 Oeste 23 Oeste -- -- -- 77
2020-07-02 23:00:00 24.3 13 Oeste 32 Oeste -- -- -- 75
2020-07-02 22:00:00 24.7 17 Noroeste 29 Sudoeste -- -- -- 74
2020-07-02 21:00:00 25.3 7 Sudoeste 19 Sudoeste -- -- -- 72
2020-07-02 20:00:00 25.9 10 Oeste 22 Noroeste -- -- -- 71
2020-07-02 19:00:00 25.9 10 Oeste 22 Sudoeste -- -- -- 71
2020-07-02 18:00:00 27.1 10 Oeste 26 Sudoeste -- -- -- 65
2020-07-02 17:00:00 27.8 7 Sudoeste 39 Oeste -- -- -- 59
2020-07-02 16:00:00 27.8 23 Oeste 42 Oeste -- -- -- 60
2020-07-02 15:00:00 27.5 21 Oeste 36 Noroeste -- -- -- 60
2020-07-02 14:00:00 27.5 26 Oeste 49 Noroeste -- -- -- 62
2020-07-02 13:00:00 26.8 25 Oeste 42 Oeste -- -- -- 67
2020-07-02 12:00:00 26.4 12 Sudoeste 24 Oeste -- -- -- 75
2020-07-02 11:00:00 25.4 17 Oeste 33 Oeste -- -- -- 80
2020-07-02 10:00:00 24.1 21 Oeste 32 Oeste -- -- -- 83
2020-07-02 09:00:00 23.2 15 Oeste 29 Oeste -- -- -- 86
2020-07-02 08:00:00 22.4 19 Oeste 32 Oeste -- -- -- 86
2020-07-02 07:00:00 22.3 22 Oeste 31 Noroeste -- -- -- 86
2020-07-02 06:00:00 22.4 7 Oeste 28 Noroeste -- -- -- 85
2020-07-02 05:00:00 22.9 19 Oeste 27 Noroeste -- -- -- 83
2020-07-02 04:00:00 23.2 11 Oeste 37 Noroeste -- -- -- 80
2020-07-02 03:00:00 23.5 29 Oeste 44 Noroeste -- -- -- 77
2020-07-02 02:00:00 23.4 26 Noroeste 48 Noroeste -- -- -- 77
2020-07-02 01:00:00 23.9 26 Oeste 42 Noroeste -- -- -- 75
2020-07-02 00:00:00 23.9 19 Oeste 39 Oeste -- -- -- 76
2020-07-01 23:00:00 24.5 13 Oeste 42 Noroeste -- -- -- 73
2020-07-01 22:00:00 24.9 24 Oeste 43 Oeste -- -- -- 71
2020-07-01 21:00:00 24.9 18 Oeste 34 Noroeste -- -- -- 72
2020-07-01 20:00:00 25.2 16 Oeste 33 Oeste -- -- -- 72
2020-07-01 19:00:00 26 10 Oeste 19 Sudoeste -- -- -- 71
2020-07-01 18:00:00 26.1 6 Sudoeste 12 Oeste -- -- -- 72
2020-07-01 17:00:00 27.1 6 Sudoeste 19 Oeste -- -- -- 69
2020-07-01 16:00:00 27.7 11 Oeste 20 Oeste -- -- -- 69
2020-07-01 15:00:00 27.3 14 Oeste 22 Oeste -- -- -- 70
2020-07-01 14:00:00 27.1 10 Oeste 27 Oeste -- -- -- 72
2020-07-01 13:00:00 26.3 18 Oeste 31 Oeste -- -- -- 73
2020-07-01 12:00:00 25.9 15 Sudoeste 28 Oeste -- -- -- 76
2020-07-01 11:00:00 24.9 21 Oeste 34 Sudoeste -- -- -- 80
2020-07-01 10:00:00 23.6 22 Oeste 36 Oeste -- -- -- 85
2020-07-01 09:00:00 22.8 26 Oeste 37 Oeste -- -- -- 87
2020-07-01 08:00:00 22.7 22 Oeste 32 Oeste -- -- -- 89
2020-07-01 07:00:00 22.5 17 Oeste 31 Noroeste -- -- -- 88
2020-07-01 06:00:00 22.7 18 Oeste 39 Noroeste -- -- -- 88
2020-07-01 05:00:00 22.7 30 Oeste 39 Oeste -- -- -- 88
2020-07-01 04:00:00 22.9 27 Oeste 37 Oeste -- -- -- 87
2020-07-01 03:00:00 23.1 22 Oeste 41 Noroeste -- -- -- 87
2020-07-01 02:00:00 23.5 25 Oeste 36 Oeste -- -- -- 86
2020-07-01 01:00:00 23.8 14 Oeste 21 Oeste -- -- -- 86
2020-07-01 00:00:00 24 14 Oeste 23 Oeste -- -- -- 85
2020-06-30 23:00:00 24.3 5 Sudoeste 11 Sudoeste -- -- -- 85
2020-06-30 22:00:00 24.2 5 Sudeste 24 Este -- -- -- 84
2020-06-30 21:00:00 24.5 20 Este 25 Este -- -- -- 82
2020-06-30 20:00:00 25.7 5 Este 20 Este -- -- -- 78
2020-06-30 19:00:00 26.5 5 Norte 20 Nordeste -- -- -- 75
2020-06-30 18:00:00 26.5 6 Oeste 32 Sudeste -- -- -- 75
2020-06-30 17:00:00 26 27 Este 40 Este -- -- -- 73
2020-06-30 16:00:00 27.1 23 Este 40 Este -- -- -- 69
2020-06-30 15:00:00 27.7 15 Nordeste 46 Este -- -- -- 66
2020-06-30 14:00:00 27.8 19 Nordeste 50 Este -- -- -- 68
2020-06-30 13:00:00 26.3 40 Este 65 Este -- -- -- 71
2020-06-30 12:00:00 26.9 24 Este 45 Este -- -- -- 68
2020-06-30 11:00:00 26.7 24 Este 46 Este -- -- -- 65
2020-06-30 10:00:00 26.4 7 Oeste 13 Oeste -- -- -- 71
2020-06-30 09:00:00 25.3 3 Sudoeste 15 Noroeste -- -- -- 69
2020-06-30 08:00:00 24.6 4 Nordeste 23 Norte -- -- -- 62
2020-06-30 07:00:00 24.2 8 Noroeste 28 Este -- -- -- 62
2020-06-30 06:00:00 24.9 11 Este 29 Este -- -- -- 60
2020-06-30 05:00:00 24.3 16 Este 28 Este -- -- -- 61
2020-06-30 04:00:00 23.6 6 Nordeste 17 Este -- -- -- 64
2020-06-30 03:00:00 23.7 4 Sudeste 8 Este -- -- -- 72
2020-06-30 02:00:00 23.7 5 Sudeste 10 Oeste -- -- -- 73
2020-06-30 01:00:00 24.2 6 Sudoeste 13 Noroeste -- -- -- 75
2020-06-30 00:00:00 24.8 5 Oeste 12 Oeste -- -- -- 73
2020-06-29 23:00:00 25.1 6 Norte 10 Nordeste -- -- -- 69
2020-06-29 22:00:00 25 6 Este 29 Nordeste -- -- -- 68
2020-06-29 21:00:00 25.2 17 Este 28 Este -- -- -- 71
2020-06-29 20:00:00 26.3 4 Sudoeste 22 Este -- -- -- 72
2020-06-29 19:00:00 26.3 12 Este 29 Este -- -- -- 70
2020-06-29 18:00:00 26.1 20 Este 38 Este -- -- -- 70
2020-06-29 17:00:00 26.5 25 Este 45 Este -- -- -- 70
2020-06-29 16:00:00 25.7 31 Este 49 Este -- -- -- 74
2020-06-29 15:00:00 25.5 37 Este 58 Este -- -- -- 74
2020-06-29 14:00:00 25.7 37 Este 48 Este -- -- -- 71
2020-06-29 13:00:00 25.7 36 Este 50 Este -- -- -- 63
2020-06-29 12:00:00 24.8 28 Este 38 Este -- -- -- 71
2020-06-29 11:00:00 23.9 21 Este 28 Este -- -- -- 81
2020-06-29 10:00:00 23.6 24 Este 30 Este -- -- -- 81
2020-06-29 09:00:00 23.5 18 Este 26 Este -- -- -- 75
2020-06-29 08:00:00 24.1 18 Este 28 Este -- -- -- 56
2020-06-29 07:00:00 23 11 Este 23 Este -- -- -- 54
2020-06-29 06:00:00 22.8 10 Este 15 Este -- -- -- 61
2020-06-29 05:00:00 22.8 5 Sudeste 10 Este -- -- -- 60
2020-06-29 04:00:00 23.3 3 Este 7 Oeste -- -- -- 54
2020-06-29 03:00:00 23.8 3 Este 18 Norte -- -- -- 53
2020-06-29 02:00:00 21.7 6 Noroeste 9 Noroeste -- -- -- 75
2020-06-29 01:00:00 23 5 Este 8 Este -- -- -- 78
2020-06-29 00:00:00 23.3 3 Sudeste 5 Sudeste -- -- -- 78
2020-06-28 23:00:00 23.4 0 Calma 10 Oeste -- -- -- 75
2020-06-28 22:00:00 24.1 5 Oeste 24 Este -- -- -- 73
2020-06-28 21:00:00 24.1 16 Este 28 Este -- -- -- 69
2020-06-28 20:00:00 24.1 24 Este 35 Este -- -- -- 71
2020-06-28 19:00:00 24.2 28 Este 37 Este -- -- -- 70
2020-06-28 18:00:00 24.3 31 Este 40 Este -- -- -- 68
2020-06-28 17:00:00 24.5 31 Este 44 Este -- -- -- 61
2020-06-28 16:00:00 24.1 33 Este 42 Este -- -- -- 73
2020-06-28 15:00:00 24.1 31 Este 39 Este -- -- -- 81
2020-06-28 14:00:00 23.7 29 Este 41 Este -- -- -- 83
2020-06-28 13:00:00 23.2 39 Este 49 Este -- -- -- 83
2020-06-28 12:00:00 24.2 34 Este 41 Este -- -- -- 78
2020-06-28 11:00:00 25.8 4 Este 9 Sudeste -- -- -- 75
2020-06-28 10:00:00 24.6 3 Sudoeste 10 Oeste -- -- -- 78
2020-06-28 09:00:00 24 5 Oeste 9 Noroeste -- -- -- 80
2020-06-28 08:00:00 22.5 0 Calma 4 Oeste -- -- -- 81
2020-06-28 07:00:00 21.5 0 Calma 10 Este -- -- -- 76
2020-06-28 06:00:00 21.3 7 Este 9 Este -- -- -- 77
2020-06-28 05:00:00 21.6 6 Oeste 19 Este -- -- -- 80
2020-06-28 04:00:00 21.2 8 Oeste 18 Noroeste -- -- -- 83
2020-06-28 03:00:00 22 12 Oeste 19 Oeste -- -- -- 84
2020-06-28 02:00:00 22.3 11 Oeste 21 Noroeste -- -- -- 83
2020-06-28 01:00:00 22.5 15 Oeste 26 Noroeste -- -- -- 81
2020-06-28 00:00:00 23.2 8 Oeste 17 Oeste -- -- -- 76
2020-06-27 23:00:00 23.2 13 Oeste 24 Noroeste -- -- -- 72
2020-06-27 22:00:00 23.7 12 Oeste 18 Oeste -- -- -- 71
2020-06-27 21:00:00 24.4 6 Oeste 21 Oeste -- -- -- 63
2020-06-27 20:00:00 24.6 12 Oeste 25 Oeste -- -- -- 61
2020-06-27 19:00:00 24.8 10 Oeste 15 Oeste -- -- -- 70
2020-06-27 18:00:00 25.2 4 Oeste 12 Sudoeste -- -- -- 70
2020-06-27 17:00:00 26.5 5 Sudoeste 13 Noroeste -- -- -- 66
2020-06-27 16:00:00 26.7 8 Oeste 13 Noroeste -- -- -- 68
2020-06-27 15:00:00 26.5 8 Oeste 14 Oeste -- -- -- 69
2020-06-27 14:00:00 26.4 6 Sudoeste 15 Oeste -- -- -- 70
2020-06-27 13:00:00 26 5 Sudoeste 11 Sudoeste -- -- -- 71
2020-06-27 12:00:00 24.9 4 Sur 9 Sur -- -- -- 74
2020-06-27 11:00:00 24.9 4 Sudeste 9 Sudeste -- -- -- 77
2020-06-27 10:00:00 24 0 Calma 5 Sudeste -- -- -- 83
2020-06-27 09:00:00 22.9 2 Sudoeste 9 Este -- -- -- 86
2020-06-27 08:00:00 21.7 2 Este 13 Este -- -- -- 87
2020-06-27 07:00:00 20.8 4 Este 9 Noroeste -- -- -- 87
2020-06-27 06:00:00 21 4 Noroeste 13 Oeste -- -- -- 86
2020-06-27 05:00:00 21.5 2 Sudeste 13 Sudoeste -- -- -- 87
2020-06-27 04:00:00 21.5 4 Oeste 20 Oeste -- -- -- 87
2020-06-27 03:00:00 21.5 9 Oeste 22 Sudoeste -- -- -- 86
2020-06-27 02:00:00 21.8 11 Oeste 23 Sudoeste -- -- -- 85
2020-06-27 01:00:00 21.9 6 Oeste 17 Noroeste -- -- -- 85
2020-06-27 00:00:00 22 8 Sudeste 19 Sudeste -- -- -- 84
2020-06-26 23:00:00 22.4 5 Sudeste 13 Sudoeste -- -- -- 82
2020-06-26 22:00:00 22.8 4 Sudeste 11 Sudoeste -- -- -- 78
2020-06-26 21:00:00 23.9 5 Oeste 18 Oeste -- -- -- 75
2020-06-26 20:00:00 24.2 16 Oeste 25 Oeste -- -- -- 73
2020-06-26 19:00:00 24.5 14 Oeste 26 Oeste -- -- -- 72
2020-06-26 18:00:00 24.9 14 Oeste 23 Sudoeste -- -- -- 72
2020-06-26 17:00:00 25.9 13 Oeste 25 Sudoeste -- -- -- 67
2020-06-26 16:00:00 26.9 11 Oeste 17 Oeste -- -- -- 69
2020-06-26 15:00:00 26.7 6 Sudoeste 14 Oeste -- -- -- 70
2020-06-26 14:00:00 26.8 6 Sudoeste 12 Oeste -- -- -- 70
2020-06-26 13:00:00 26.1 4 Sudoeste 8 Sudoeste -- -- -- 72
2020-06-26 12:00:00 25.9 3 Sudoeste 9 Sur -- -- -- 73
2020-06-26 11:00:00 25.9 5 Sudoeste 15 Oeste -- -- -- 72
2020-06-26 10:00:00 24.8 14 Oeste 20 Oeste -- -- -- 76
2020-06-26 09:00:00 24 8 Oeste 10 Oeste -- -- -- 79
2020-06-26 08:00:00 22.7 0 Calma 8 Sudeste -- -- -- 80
2020-06-26 07:00:00 21.8 0 Calma 11 Norte -- -- -- 77
2020-06-26 06:00:00 22 2 Sudeste 12 Oeste -- -- -- 77
2020-06-26 05:00:00 22.2 12 Oeste 17 Oeste -- -- -- 75
2020-06-26 04:00:00 22.2 8 Norte 17 Noroeste -- -- -- 72
2020-06-26 03:00:00 22.3 8 Noroeste 18 Noroeste -- -- -- 73
2020-06-26 02:00:00 23 13 Oeste 26 Noroeste -- -- -- 72
2020-06-26 01:00:00 23 9 Noroeste 22 Oeste -- -- -- 74
2020-06-26 00:00:00 23 15 Oeste 32 Noroeste -- -- -- 75
2020-06-25 23:00:00 23.2 14 Noroeste 25 Noroeste -- -- -- 74
2020-06-25 22:00:00 23.7 8 Oeste 14 Sudoeste -- -- -- 74
2020-06-25 21:00:00 24.2 7 Oeste 19 Oeste -- -- -- 73
2020-06-25 20:00:00 24 4 Sudeste 10 Sur -- -- -- 73
2020-06-25 19:00:00 24.5 5 Sur 13 Sudoeste -- -- -- 72
2020-06-25 18:00:00 24.5 7 Sur 13 Sudeste -- -- -- 71
2020-06-25 17:00:00 25.2 8 Sudeste 15 Sudeste -- -- -- 67
2020-06-25 16:00:00 26.2 7 Sudeste 14 Este -- -- -- 62
2020-06-25 15:00:00 26.4 5 Sur 15 Sudeste -- -- -- 60
2020-06-25 14:00:00 27.2 5 Sudoeste 15 Sudoeste -- -- -- 62
2020-06-25 13:00:00 27.6 12 Oeste 18 Oeste -- -- -- 61
2020-06-25 12:00:00 26.9 4 Sudoeste 18 Noroeste -- -- -- 57
2020-06-25 11:00:00 26.2 8 Oeste 18 Oeste -- -- -- 63
2020-06-25 10:00:00 25.1 10 Oeste 15 Oeste -- -- -- 66
2020-06-25 09:00:00 24.1 4 Oeste 9 Oeste -- -- -- 71
2020-06-25 08:00:00 22.9 5 Oeste 13 Sur -- -- -- 72
2020-06-25 07:00:00 23.2 2 Sudeste 7 Este -- -- -- 65
2020-06-25 06:00:00 23.5 4 Sudeste 28 Noroeste -- -- -- 56
2020-06-25 05:00:00 23.7 19 Oeste 28 Noroeste -- -- -- 55
2020-06-25 04:00:00 25.8 6 Norte 14 Norte -- -- -- 44
2020-06-25 03:00:00 25.7 8 Norte 12 Norte -- -- -- 39
2020-06-25 02:00:00 25.7 6 Este 28 Nordeste -- -- -- 40
2020-06-25 01:00:00 26.1 13 Nordeste 31 Nordeste -- -- -- 41
2020-06-25 00:00:00 26.9 14 Nordeste 29 Este -- -- -- 37
2020-06-24 23:00:00 27.1 19 Norte 40 Nordeste -- -- -- 35
2020-06-24 22:00:00 26.7 18 Nordeste 40 Nordeste -- -- -- 42
2020-06-24 21:00:00 27.7 21 Nordeste 54 Nordeste -- -- -- 38
2020-06-24 20:00:00 28.4 27 Nordeste 51 Nordeste -- -- -- 41
2020-06-24 19:00:00 29.2 24 Nordeste 51 Nordeste -- -- -- 35
2020-06-24 18:00:00 28.7 32 Nordeste 61 Nordeste -- -- -- 40
2020-06-24 17:00:00 28 37 Nordeste 55 Este -- -- -- 42
2020-06-24 16:00:00 27.6 20 Este 55 Nordeste -- -- -- 47
2020-06-24 15:00:00 28.1 26 Nordeste 55 Nordeste -- -- -- 44
2020-06-24 14:00:00 27 37 Este 59 Este -- -- -- 45
2020-06-24 13:00:00 29 9 Sur 79 Nordeste -- -- -- 38
2020-06-24 12:00:00 28.6 44 Nordeste 87 Nordeste -- -- -- 35
2020-06-24 11:00:00 27.5 48 Nordeste 81 Nordeste -- -- -- 38
2020-06-24 10:00:00 26.1 51 Nordeste 74 Nordeste -- -- -- 42
2020-06-24 09:00:00 24.9 46 Nordeste 69 Nordeste -- -- -- 48
2020-06-24 08:00:00 23.6 22 Este 32 Este -- -- -- 62
2020-06-24 07:00:00 22.4 13 Oeste 36 Noroeste -- -- -- 70
2020-06-24 06:00:00 22.7 21 Noroeste 48 Noroeste -- -- -- 66
2020-06-24 05:00:00 25.8 9 Nordeste 77 Nordeste -- -- -- 44
2020-06-24 04:00:00 26.2 43 Nordeste 77 Nordeste -- -- -- 45
2020-06-24 03:00:00 25.7 14 Nordeste 28 Nordeste -- -- -- 45
2020-06-24 02:00:00 26 9 Nordeste 44 Norte -- -- -- 45
2020-06-24 01:00:00 25.9 25 Norte 80 Norte -- -- -- 47
2020-06-24 00:00:00 25.6 47 Norte 76 Norte -- -- -- 47
2020-06-23 23:00:00 24.9 22 Nordeste 44 Nordeste -- -- -- 52
2020-06-23 22:00:00 25.2 34 Nordeste 75 Nordeste -- -- -- 52
2020-06-23 21:00:00 25.7 51 Nordeste 87 Nordeste -- -- -- 50
2020-06-23 20:00:00 26.3 57 Nordeste 90 Nordeste -- -- -- 47
2020-06-23 19:00:00 27.1 56 Nordeste 78 Nordeste -- -- -- 44
2020-06-23 18:00:00 28.1 44 Nordeste 73 Nordeste -- -- -- 42
2020-06-23 17:00:00 28.5 36 Nordeste 76 Este -- -- -- 43
2020-06-23 16:00:00 29.3 28 Nordeste 71 Nordeste -- -- -- 39
2020-06-23 15:00:00 29.1 37 Nordeste 74 Nordeste -- -- -- 38
2020-06-23 14:00:00 29.3 37 Nordeste 69 Este -- -- -- 39
2020-06-23 13:00:00 29.2 37 Nordeste 65 Nordeste -- -- -- 39
2020-06-23 12:00:00 29.3 41 Nordeste 75 Nordeste -- -- -- 39
2020-06-23 11:00:00 29.5 33 Nordeste 67 Este -- -- -- 38
2020-06-23 10:00:00 29.4 34 Nordeste 54 Nordeste -- -- -- 37
2020-06-23 09:00:00 27.9 28 Norte 58 Norte -- -- -- 40
2020-06-23 08:00:00 26.1 26 Norte 40 Norte -- -- -- 45
2020-06-23 07:00:00 25.6 16 Norte 34 Norte -- -- -- 45
2020-06-23 06:00:00 25.8 14 Norte 41 Nordeste -- -- -- 42
2020-06-23 05:00:00 26.4 22 Norte 48 Nordeste -- -- -- 41
2020-06-23 04:00:00 26.2 27 Nordeste 59 Nordeste -- -- -- 42
2020-06-23 03:00:00 26.3 26 Nordeste 67 Nordeste -- -- -- 42
2020-06-23 02:00:00 26.4 33 Nordeste 59 Nordeste -- -- -- 42
2020-06-23 01:00:00 26.2 19 Norte 63 Nordeste -- -- -- 44
2020-06-23 00:00:00 26.1 37 Nordeste 73 Nordeste -- -- -- 43
2020-06-22 23:00:00 25.5 43 Nordeste 70 Nordeste -- -- -- 48
2020-06-22 22:00:00 25.4 49 Nordeste 75 Norte -- -- -- 51
2020-06-22 21:00:00 25.7 60 Nordeste 92 Nordeste -- -- -- 50
2020-06-22 20:00:00 26.2 49 Nordeste 75 Este -- -- -- 50
2020-06-22 19:00:00 27 50 Nordeste 68 Este -- -- -- 46
2020-06-22 18:00:00 27.5 49 Este 75 Este -- -- -- 44
2020-06-22 17:00:00 28.2 49 Este 69 Este -- -- -- 38
2020-06-22 16:00:00 29.2 45 Este 64 Nordeste -- -- -- 34
2020-06-22 15:00:00 28.8 40 Este 62 Este -- -- -- 37
2020-06-22 14:00:00 30.1 33 Nordeste 50 Este -- -- -- 32
2020-06-22 13:00:00 30.6 25 Este 43 Nordeste -- -- -- 32
2020-06-22 12:00:00 29.8 27 Nordeste 46 Nordeste -- -- -- 35
2020-06-22 11:00:00 28.8 28 Nordeste 50 Este -- -- -- 36
2020-06-22 10:00:00 28.6 18 Este 35 Nordeste -- -- -- 37
2020-06-22 09:00:00 26 5 Oeste 28 Nordeste -- -- -- 48
2020-06-22 08:00:00 25.9 15 Nordeste 41 Nordeste -- -- -- 39
2020-06-22 07:00:00 23.8 7 Este 33 Este -- -- -- 50
2020-06-22 06:00:00 23.5 5 Nordeste 30 Nordeste -- -- -- 59
2020-06-22 05:00:00 22.2 3 Sudoeste 9 Sudeste -- -- -- 68
2020-06-22 04:00:00 22.2 4 Nordeste 8 Este -- -- -- 64
2020-06-22 03:00:00 22 4 Sudeste 10 Noroeste -- -- -- 66
2020-06-22 02:00:00 22.5 5 Oeste 8 Oeste -- -- -- 60
2020-06-22 01:00:00 23 5 Este 14 Este -- -- -- 54
2020-06-22 00:00:00 23.1 8 Este 18 Este -- -- -- 59
2020-06-21 23:00:00 23.9 10 Oeste 20 Noroeste -- -- -- 54
2020-06-21 22:00:00 24.9 12 Oeste 20 Oeste -- -- -- 44
2020-06-21 21:00:00 25.6 16 Oeste 26 Oeste -- -- -- 42
2020-06-21 20:00:00 25.7 17 Oeste 31 Noroeste -- -- -- 42
2020-06-21 19:00:00 25.3 14 Oeste 27 Oeste -- -- -- 48
2020-06-21 18:00:00 25.3 15 Oeste 27 Oeste -- -- -- 56
2020-06-21 17:00:00 25.9 18 Oeste 26 Oeste -- -- -- 58
2020-06-21 16:00:00 26.4 14 Oeste 27 Oeste -- -- -- 59
2020-06-21 15:00:00 25.9 13 Oeste 20 Oeste -- -- -- 64
2020-06-21 14:00:00 25.7 7 Oeste 12 Oeste -- -- -- 70
2020-06-21 13:00:00 25.4 5 Oeste 13 Sudoeste -- -- -- 71
2020-06-21 12:00:00 24.8 6 Oeste 19 Oeste -- -- -- 74
2020-06-21 11:00:00 23.5 12 Oeste 21 Oeste -- -- -- 80
2020-06-21 10:00:00 22.8 16 Oeste 22 Noroeste -- -- -- 85
2020-06-21 09:00:00 22.3 5 Sudoeste 11 Oeste -- -- -- 87
2020-06-21 08:00:00 20.8 7 Oeste 14 Noroeste -- -- -- 88
2020-06-21 07:00:00 20.6 10 Oeste 23 Noroeste -- -- -- 87
2020-06-21 06:00:00 20.5 17 Oeste 26 Noroeste -- -- -- 86
2020-06-21 05:00:00 20.5 17 Oeste 24 Oeste -- -- -- 84
2020-06-21 04:00:00 20.6 13 Oeste 21 Noroeste -- -- -- 83
2020-06-21 03:00:00 20.7 13 Oeste 19 Oeste -- -- -- 81
2020-06-21 02:00:00 20.3 12 Oeste 18 Oeste -- -- -- 83
2020-06-21 01:00:00 20.9 9 Oeste 16 Oeste -- -- -- 83
2020-06-21 00:00:00 21.2 6 Oeste 12 Oeste -- -- -- 85
2020-06-20 23:00:00 21.9 4 Oeste 11 Noroeste -- -- -- 85
2020-06-20 22:00:00 22.4 6 Oeste 12 Sudoeste -- -- -- 84
2020-06-20 21:00:00 23 8 Oeste 14 Sudoeste -- -- -- 83
2020-06-20 20:00:00 23.1 7 Oeste 13 Oeste -- -- -- 83
2020-06-20 19:00:00 22.5 4 Sudeste 10 Sudeste -- -- -- 83
2020-06-20 18:00:00 22.7 8 Este 23 Este -- -- -- 82
2020-06-20 17:00:00 23.3 15 Este 39 Este -- -- -- 83
2020-06-20 16:00:00 22.2 36 Este 44 Este -- -- -- 84
2020-06-20 15:00:00 22.2 36 Este 42 Este -- -- -- 83
2020-06-20 14:00:00 22.2 35 Este 40 Este -- -- -- 83
2020-06-20 13:00:00 22.3 34 Este 55 Este -- -- -- 82
2020-06-20 12:00:00 22.2 31 Este 38 Este -- -- -- 82
2020-06-20 11:00:00 22.4 31 Este 39 Este -- -- -- 78
2020-06-20 10:00:00 22.3 23 Este 34 Este -- -- -- 81
2020-06-20 09:00:00 21.5 3 Oeste 5 Oeste -- -- -- 84
2020-06-20 08:00:00 20.1 3 Oeste 6 Noroeste -- -- -- 86
2020-06-20 07:00:00 19.1 0 Calma 11 Noroeste -- -- -- 86
2020-06-20 06:00:00 19.2 7 Noroeste 12 Noroeste -- -- -- 86
2020-06-20 05:00:00 19.4 6 Norte 9 Norte -- -- -- 85
2020-06-20 04:00:00 20.1 0 Calma 12 Este -- -- -- 85
2020-06-20 03:00:00 20.4 8 Nordeste 22 Este -- -- -- 85
2020-06-20 02:00:00 20.7 16 Este 26 Este -- -- -- 84
2020-06-20 01:00:00 20.6 5 Este 10 Este -- -- -- 84
2020-06-20 00:00:00 20.7 5 Noroeste 23 Este -- -- -- 84
2020-06-19 23:00:00 20.6 18 Este 23 Este -- -- -- 84
2020-06-19 22:00:00 20.7 18 Este 23 Este -- -- -- 83
2020-06-19 21:00:00 20.9 8 Este 14 Este -- -- -- 81
2020-06-19 20:00:00 21 4 Sudeste 11 Este -- -- -- 79
2020-06-19 19:00:00 21.4 6 Sudeste 13 Este -- -- -- 77
2020-06-19 18:00:00 22.6 6 Este 16 Este -- -- -- 74
2020-06-19 17:00:00 23.1 7 Este 17 Este -- -- -- 72
2020-06-19 16:00:00 23.5 9 Este 23 Este -- -- -- 72
2020-06-19 15:00:00 23.7 10 Este 21 Este -- -- -- 72
2020-06-19 14:00:00 23.3 13 Este 25 Este -- -- -- 72
2020-06-19 13:00:00 23.3 8 Este 17 Este -- -- -- 73
2020-06-19 12:00:00 23.3 3 Sur 10 Nordeste -- -- -- 76
2020-06-19 11:00:00 22.7 4 Sudeste 9 Este -- -- -- 83
2020-06-19 10:00:00 22.1 3 Sudeste 6 Sur -- -- -- 87
2020-06-19 09:00:00 21.4 0 Calma 4 Oeste -- -- -- 89
2020-06-19 08:00:00 19.8 2 Noroeste 5 Noroeste -- -- -- 88
2020-06-19 07:00:00 19.7 3 Este 9 Este -- -- -- 88
2020-06-19 06:00:00 19.6 0 Calma 9 Noroeste -- -- -- 88
2020-06-19 05:00:00 19.9 0 Calma 11 Noroeste -- -- -- 87
2020-06-19 04:00:00 20.2 2 Nordeste 8 Oeste -- -- -- 87
2020-06-19 03:00:00 20.3 4 Noroeste 35 Oeste -- -- -- 86
2020-06-19 02:00:00 20.8 10 Sudoeste 41 Este -- -- -- 85
2020-06-19 01:00:00 20.5 6 Este 32 Este -- -- -- 87
2020-06-19 00:00:00 20.8 21 Este 35 Este -- -- -- 86
2020-06-18 23:00:00 20.9 8 Sudeste 33 Este -- -- -- 84
2020-06-18 22:00:00 21.2 12 Oeste 22 Noroeste -- -- -- 82
2020-06-18 21:00:00 21.8 5 Oeste 14 Noroeste -- -- -- 81
2020-06-18 20:00:00 22.1 7 Oeste 13 Oeste -- -- -- 81
2020-06-18 19:00:00 21.9 5 Oeste 31 Este -- -- -- 82
2020-06-18 18:00:00 21.6 24 Este 35 Este -- -- -- 81
2020-06-18 17:00:00 21.5 31 Este 49 Este -- -- -- 80
2020-06-18 16:00:00 21.6 36 Este 44 Este -- -- -- 79
2020-06-18 15:00:00 21.8 36 Este 43 Este -- -- -- 79
2020-06-18 14:00:00 22 37 Este 47 Este -- -- -- 76
2020-06-18 13:00:00 23.2 32 Este 43 Este -- -- -- 70
2020-06-18 12:00:00 22.1 29 Este 42 Este -- -- -- 77
2020-06-18 11:00:00 21.7 26 Este 34 Este -- -- -- 76
2020-06-18 10:00:00 22.2 16 Nordeste 35 Este -- -- -- 78
2020-06-18 09:00:00 20.9 14 Este 23 Nordeste -- -- -- 83
2020-06-18 08:00:00 19.8 14 Nordeste 28 Nordeste -- -- -- 85
2020-06-18 07:00:00 19.3 15 Nordeste 25 Nordeste -- -- -- 86
2020-06-18 06:00:00 19 14 Nordeste 33 Nordeste -- -- -- 86
2020-06-18 05:00:00 18.7 17 Este 24 Nordeste -- -- -- 86
2020-06-18 04:00:00 18.6 8 Este 13 Este -- -- -- 85
2020-06-18 03:00:00 19.2 4 Norte 21 Este -- -- -- 83
2020-06-18 02:00:00 19.6 13 Este 19 Este -- -- -- 82
2020-06-18 01:00:00 20 3 Noroeste 20 Oeste -- -- -- 80
2020-06-18 00:00:00 20.2 9 Oeste 22 Noroeste -- -- -- 80
2020-06-17 23:00:00 20.3 10 Noroeste 17 Noroeste -- -- -- 78
2020-06-17 22:00:00 21.1 2 Sudoeste 13 Oeste -- -- -- 75
2020-06-17 21:00:00 21.7 5 Oeste 16 Noroeste -- -- -- 72
2020-06-17 20:00:00 22.5 9 Oeste 18 Oeste -- -- -- 69
2020-06-17 19:00:00 22 10 Oeste 19 Oeste -- -- -- 73
2020-06-17 18:00:00 21.5 6 Noroeste 13 Noroeste -- -- -- 77
2020-06-17 17:00:00 21.3 5 Sudeste 15 Este -- -- -- 75
2020-06-17 16:00:00 21.6 7 Sudeste 23 Este -- -- -- 77
2020-06-17 15:00:00 21.1 14 Este 26 Este -- -- -- 78
2020-06-17 14:00:00 20.7 11 Este 37 Este -- -- -- 81
2020-06-17 13:00:00 20 27 Este 56 Este -- -- -- 83
2020-06-17 12:00:00 19.4 41 Este 48 Este -- -- -- 80
2020-06-17 11:00:00 21.6 21 Este 31 Este -- -- -- 75
2020-06-17 10:00:00 20.9 3 Sudeste 9 Sudeste -- -- -- 77
2020-06-17 09:00:00 20.5 5 Oeste 15 Oeste -- -- -- 81
2020-06-17 08:00:00 18.7 6 Oeste 14 Oeste -- -- -- 83
2020-06-17 07:00:00 18.1 7 Este 11 Este -- -- -- 82
2020-06-17 06:00:00 18.3 7 Nordeste 21 Este -- -- -- 83
2020-06-17 05:00:00 18.3 10 Este 20 Este -- -- -- 82
2020-06-17 04:00:00 18.5 16 Este 22 Este -- -- -- 78
2020-06-17 03:00:00 19.7 3 Sudeste 23 Oeste -- -- -- 75
2020-06-17 02:00:00 19.8 13 Oeste 32 Noroeste -- -- -- 75
2020-06-17 01:00:00 19.7 21 Noroeste 47 Noroeste -- -- -- 75
2020-06-17 00:00:00 19.5 33 Noroeste 53 Noroeste -- -- -- 74
2020-06-16 23:00:00 19.5 30 Oeste 46 Oeste -- -- -- 74
2020-06-16 22:00:00 19.7 21 Oeste 42 Oeste -- -- -- 72
2020-06-16 21:00:00 20.6 24 Oeste 49 Oeste -- -- -- 68
2020-06-16 20:00:00 21.4 21 Oeste 33 Oeste -- -- -- 67
2020-06-16 19:00:00 21.8 12 Oeste 31 Oeste -- -- -- 66
2020-06-16 18:00:00 22.2 15 Oeste 32 Oeste -- -- -- 66
2020-06-16 17:00:00 22.8 14 Oeste 30 Oeste -- -- -- 65
2020-06-16 16:00:00 23.2 18 Oeste 33 Noroeste -- -- -- 65
2020-06-16 15:00:00 23.4 10 Oeste 20 Oeste -- -- -- 64
2020-06-16 14:00:00 23.4 7 Oeste 22 Oeste -- -- -- 67
2020-06-16 13:00:00 23.1 14 Oeste 25 Oeste -- -- -- 68
2020-06-16 12:00:00 22.6 11 Oeste 22 Oeste -- -- -- 72
2020-06-16 11:00:00 21.5 12 Oeste 31 Oeste -- -- -- 76
2020-06-16 10:00:00 20 17 Oeste 33 Oeste -- -- -- 81
2020-06-16 09:00:00 18.4 14 Oeste 24 Oeste -- -- -- 84
2020-06-16 08:00:00 17.8 6 Oeste 21 Oeste -- -- -- 84
2020-06-16 07:00:00 17.5 9 Oeste 24 Oeste -- -- -- 84
2020-06-16 06:00:00 17.6 13 Oeste 27 Oeste -- -- -- 83
2020-06-16 05:00:00 17.8 17 Oeste 30 Oeste -- -- -- 81
2020-06-16 04:00:00 18.4 17 Oeste 31 Oeste -- -- -- 81
2020-06-16 03:00:00 18.7 13 Oeste 24 Oeste -- -- -- 82
2020-06-16 02:00:00 19.2 14 Oeste 24 Oeste -- -- -- 80
2020-06-16 01:00:00 19.5 13 Oeste 31 Oeste -- -- -- 78
2020-06-16 00:00:00 19.6 16 Oeste 32 Oeste -- -- -- 77
2020-06-15 23:00:00 19.9 13 Oeste 26 Oeste -- -- -- 75
2020-06-15 22:00:00 20.4 15 Oeste 28 Noroeste -- -- -- 73
2020-06-15 21:00:00 21 17 Oeste 30 Oeste -- -- -- 72
2020-06-15 20:00:00 21.2 13 Oeste 27 Oeste -- -- -- 72
2020-06-15 19:00:00 21.4 19 Oeste 34 Oeste -- -- -- 69
2020-06-15 18:00:00 21.5 19 Oeste 37 Oeste -- -- -- 69
2020-06-15 17:00:00 21.9 18 Noroeste 35 Sudoeste -- -- -- 65
2020-06-15 16:00:00 23 17 Oeste 31 Oeste -- -- -- 64
2020-06-15 15:00:00 22.8 14 Oeste 28 Noroeste -- -- -- 67
2020-06-15 14:00:00 22.5 15 Oeste 30 Oeste -- -- -- 68
2020-06-15 13:00:00 22.3 14 Oeste 33 Oeste -- -- -- 70
2020-06-15 12:00:00 21.6 17 Oeste 26 Oeste -- -- -- 72
2020-06-15 11:00:00 20.8 9 Oeste 17 Oeste -- -- -- 75
2020-06-15 10:00:00 20 8 Oeste 22 Noroeste -- -- -- 80
2020-06-15 09:00:00 18.8 13 Oeste 24 Noroeste -- -- -- 84
2020-06-15 08:00:00 17.5 17 Oeste 27 Noroeste -- -- -- 86
2020-06-15 07:00:00 16.7 18 Oeste 27 Oeste -- -- -- 85
2020-06-15 06:00:00 16.9 9 Oeste 21 Oeste -- -- -- 84
2020-06-15 05:00:00 17.1 13 Oeste 28 Noroeste -- -- -- 82
2020-06-15 04:00:00 17.3 17 Oeste 34 Oeste -- -- -- 81
2020-06-15 03:00:00 17.6 17 Oeste 29 Noroeste -- -- -- 80
2020-06-15 02:00:00 18.1 9 Oeste 27 Oeste -- -- -- 77
2020-06-15 01:00:00 18.6 14 Oeste 31 Oeste -- -- -- 75
2020-06-15 00:00:00 19 17 Oeste 33 Noroeste -- -- -- 73
2020-06-14 23:00:00 19 16 Oeste 36 Oeste -- -- -- 72
2020-06-14 22:00:00 19.5 19 Oeste 51 Oeste -- -- -- 69
2020-06-14 21:00:00 19.8 27 Noroeste 48 Noroeste -- -- -- 69
2020-06-14 20:00:00 20.4 20 Oeste 32 Oeste -- -- -- 69
2020-06-14 19:00:00 20.8 18 Oeste 35 Oeste -- -- -- 69
2020-06-14 18:00:00 21.2 16 Oeste 31 Oeste -- -- -- 69
2020-06-14 17:00:00 22 14 Oeste 30 Oeste -- -- -- 66
2020-06-14 16:00:00 22.4 17 Oeste 30 Sudoeste -- -- -- 65
2020-06-14 15:00:00 22.4 15 Oeste 27 Noroeste -- -- -- 66
2020-06-14 14:00:00 22.3 18 Oeste 35 Noroeste -- -- -- 67
2020-06-14 13:00:00 21.9 15 Oeste 33 Noroeste -- -- -- 69
2020-06-14 12:00:00 21.9 10 Oeste 26 Noroeste -- -- -- 70
2020-06-14 11:00:00 20.9 13 Oeste 36 Oeste -- -- -- 74
2020-06-14 10:00:00 19.7 23 Oeste 33 Oeste -- -- -- 80
2020-06-14 09:00:00 18.3 10 Oeste 17 Oeste -- -- -- 85
2020-06-14 08:00:00 17.1 4 Oeste 17 Sudoeste -- -- -- 85
2020-06-14 07:00:00 17.3 13 Oeste 26 Noroeste -- -- -- 83
2020-06-14 06:00:00 17.8 11 Oeste 31 Noroeste -- -- -- 82
2020-06-14 05:00:00 18.1 19 Oeste 32 Noroeste -- -- -- 81
2020-06-14 04:00:00 18.2 16 Oeste 27 Oeste -- -- -- 81
2020-06-14 03:00:00 18.6 14 Oeste 28 Oeste -- -- -- 80
2020-06-14 02:00:00 18.7 12 Oeste 23 Noroeste -- -- -- 76
2020-06-14 01:00:00 18.9 12 Oeste 26 Oeste -- -- -- 74
2020-06-14 00:00:00 19 15 Oeste 28 Oeste -- -- -- 73
2020-06-13 23:00:00 19.1 8 Oeste 29 Noroeste -- -- -- 68
2020-06-13 22:00:00 19.4 17 Oeste 29 Noroeste -- -- -- 66
2020-06-13 21:00:00 19.8 18 Oeste 33 Oeste -- -- -- 65
2020-06-13 20:00:00 19.9 14 Oeste 32 Noroeste -- -- -- 68
2020-06-13 19:00:00 20.5 13 Oeste 22 Sudoeste -- -- -- 69
2020-06-13 18:00:00 21.4 8 Oeste 22 Sudoeste -- -- -- 67
2020-06-13 17:00:00 21.4 13 Oeste 20 Sudoeste -- -- -- 65
2020-06-13 16:00:00 21.5 8 Oeste 17 Sudoeste -- -- -- 69
2020-06-13 15:00:00 21.9 5 Sudoeste 18 Oeste -- -- -- 65
2020-06-13 14:00:00 22.4 12 Oeste 28 Noroeste -- -- -- 59
2020-06-13 13:00:00 21.7 10 Oeste 35 Noroeste -- -- -- 65
2020-06-13 12:00:00 20.6 19 Noroeste 32 Noroeste -- -- -- 66
2020-06-13 11:00:00 20.9 8 Oeste 21 Oeste -- -- -- 66
2020-06-13 10:00:00 19.7 13 Oeste 27 Oeste -- -- -- 69
2020-06-13 09:00:00 18.6 12 Oeste 18 Oeste -- -- -- 72
2020-06-13 08:00:00 16.8 8 Noroeste 20 Oeste -- -- -- 77
2020-06-13 07:00:00 16.2 12 Noroeste 28 Sudoeste -- -- -- 78
2020-06-13 06:00:00 16.2 11 Oeste 18 Oeste -- -- -- 80
2020-06-13 05:00:00 16.4 7 Oeste 46 Oeste -- -- -- 81
2020-06-13 04:00:00 16.4 23 Oeste 46 Sudoeste -- -- -- 83
2020-06-13 03:00:00 16.5 29 Noroeste 49 Noroeste -- -- -- 83
2020-06-13 02:00:00 16.6 21 Oeste 51 Sudoeste -- -- -- 84
2020-06-13 01:00:00 16.8 23 Oeste 55 Sudoeste -- -- -- 84
2020-06-13 00:00:00 17.2 30 Oeste 51 Sudoeste -- -- -- 84
2020-06-12 23:00:00 17.2 16 Oeste 46 Oeste -- -- -- 83
2020-06-12 22:00:00 17.4 24 Oeste 41 Sudoeste -- -- -- 82
2020-06-12 21:00:00 17.9 23 Oeste 59 Oeste -- -- -- 79
2020-06-12 20:00:00 18.3 45 Oeste 54 Oeste -- -- -- 78
2020-06-12 19:00:00 18.3 28 Oeste 44 Sudoeste -- -- -- 77
2020-06-12 18:00:00 18.5 21 Oeste 46 Sudoeste -- -- -- 76
2020-06-12 17:00:00 19.2 22 Oeste 48 Sudoeste -- -- -- 72
2020-06-12 16:00:00 20.4 29 Oeste 55 Oeste -- -- -- 71
2020-06-12 15:00:00 20.8 21 Oeste 45 Noroeste -- -- -- 72
2020-06-12 14:00:00 20.6 17 Oeste 36 Sudoeste -- -- -- 77
2020-06-12 13:00:00 19.9 23 Oeste 42 Oeste -- -- -- 80
2020-06-12 12:00:00 19.1 19 Oeste 33 Sudoeste -- -- -- 84
2020-06-12 11:00:00 18 21 Oeste 44 Oeste -- -- -- 87
2020-06-12 10:00:00 17.3 33 Oeste 57 Oeste -- -- -- 87
2020-06-12 09:00:00 17.1 40 Oeste 59 Oeste -- -- -- 87
2020-06-12 08:00:00 17 34 Oeste 63 Oeste -- -- -- 87
2020-06-12 07:00:00 16.8 37 Oeste 56 Oeste -- -- -- 87
2020-06-12 06:00:00 17 37 Oeste 58 Sudoeste -- -- -- 86
2020-06-12 05:00:00 17 40 Oeste 59 Oeste -- -- -- 85
2020-06-12 04:00:00 17.2 49 Oeste 67 Oeste -- -- -- 84
2020-06-12 03:00:00 17.4 55 Oeste 69 Oeste -- -- -- 83
2020-06-12 02:00:00 17.6 49 Oeste 66 Oeste -- -- -- 81
2020-06-12 01:00:00 17.7 43 Oeste 62 Oeste -- -- -- 81
2020-06-12 00:00:00 17.8 32 Oeste 66 Oeste -- -- -- 79
2020-06-11 23:00:00 17.9 48 Oeste 69 Oeste -- -- -- 78
2020-06-11 22:00:00 17.9 43 Oeste 69 Sudoeste -- -- -- 78
2020-06-11 21:00:00 18.3 37 Oeste 72 Oeste -- -- -- 76
2020-06-11 20:00:00 18.9 39 Oeste 71 Sudoeste -- -- -- 74
2020-06-11 19:00:00 19.1 39 Oeste 69 Sudoeste -- -- -- 72
2020-06-11 18:00:00 19.6 41 Sudoeste 71 Sudoeste -- -- -- 70
2020-06-11 17:00:00 20.4 32 Oeste 60 Oeste -- -- -- 68
2020-06-11 16:00:00 20.9 34 Oeste 55 Oeste -- -- -- 68
2020-06-11 15:00:00 21.2 32 Oeste 58 Sudoeste -- -- -- 67
2020-06-11 14:00:00 21.1 33 Oeste 54 Oeste -- -- -- 68
2020-06-11 13:00:00 20.6 31 Oeste 53 Oeste -- -- -- 71
2020-06-11 12:00:00 21.3 26 Sudoeste 42 Sudoeste -- -- -- 70
2020-06-11 11:00:00 21.6 19 Oeste 30 Oeste -- -- -- 74
2020-06-11 10:00:00 21.1 14 Oeste 31 Sudoeste -- -- -- 77
2020-06-11 09:00:00 20.1 9 Oeste 24 Oeste -- -- -- 80
2020-06-11 08:00:00 18.7 13 Oeste 40 Noroeste -- -- -- 81
2020-06-11 07:00:00 18.1 28 Noroeste 42 Oeste -- -- -- 82
2020-06-11 06:00:00 18.5 25 Oeste 41 Noroeste -- -- -- 82
2020-06-11 05:00:00 19.3 14 Oeste 30 Oeste -- -- -- 81
2020-06-11 04:00:00 19.6 16 Oeste 28 Noroeste -- -- -- 80
2020-06-11 03:00:00 19.9 21 Oeste 30 Noroeste -- -- -- 78
2020-06-11 02:00:00 20.2 14 Oeste 30 Noroeste -- -- -- 78
2020-06-11 01:00:00 20.4 18 Oeste 31 Noroeste -- -- -- 76
2020-06-11 00:00:00 20.8 12 Oeste 26 Oeste -- -- -- 74
2020-06-10 23:00:00 21.1 11 Oeste 20 Sudoeste -- -- -- 70
2020-06-10 22:00:00 21.2 11 Oeste 19 Oeste -- -- -- 67
2020-06-10 21:00:00 21.8 11 Oeste 19 Oeste -- -- -- 73
2020-06-10 20:00:00 22.6 7 Oeste 14 Oeste -- -- -- 74
2020-06-10 19:00:00 22.9 6 Sudoeste 11 Oeste -- -- -- 72
2020-06-10 18:00:00 23.4 4 Oeste 9 Sudoeste -- -- -- 70
2020-06-10 17:00:00 24.5 5 Oeste 12 Sudoeste -- -- -- 67
2020-06-10 16:00:00 24.7 5 Oeste 12 Sudoeste -- -- -- 67
2020-06-10 15:00:00 24.1 6 Oeste 14 Oeste -- -- -- 66
2020-06-10 14:00:00 24.6 7 Oeste 13 Sudoeste -- -- -- 67
2020-06-10 13:00:00 24 3 Sudoeste 6 Noroeste -- -- -- 70
2020-06-10 12:00:00 23.3 3 Sur 5 Sur -- -- -- 71
2020-06-10 11:00:00 22.6 4 Sudeste 9 Sudeste -- -- -- 75
2020-06-10 10:00:00 21.6 6 Este 12 Este -- -- -- 78
2020-06-10 09:00:00 20.3 7 Este 12 Este -- -- -- 82
2020-06-10 08:00:00 18.5 5 Este 13 Noroeste -- -- -- 83
2020-06-10 07:00:00 18.2 7 Noroeste 15 Noroeste -- -- -- 84
2020-06-10 06:00:00 18.4 7 Noroeste 20 Noroeste -- -- -- 84
2020-06-10 05:00:00 18.7 11 Oeste 24 Noroeste -- -- -- 84
2020-06-10 04:00:00 19 9 Oeste 16 Noroeste -- -- -- 85
2020-06-10 03:00:00 19.2 3 Noroeste 9 Norte -- -- -- 85
2020-06-10 02:00:00 19 3 Norte 17 Este -- -- -- 84
2020-06-10 01:00:00 19 9 Este 15 Sudeste -- -- -- 82
2020-06-10 00:00:00 19.2 11 Este 17 Este -- -- -- 79
2020-06-09 23:00:00 20.2 9 Este 14 Este -- -- -- 68
2020-06-09 22:00:00 20.7 6 Oeste 14 Oeste -- -- -- 73
2020-06-09 21:00:00 21.3 9 Oeste 13 Oeste -- -- -- 73
2020-06-09 20:00:00 21.2 5 Oeste 8 Oeste -- -- -- 76
2020-06-09 19:00:00 20.7 3 Sudeste 6 Sudoeste -- -- -- 75
2020-06-09 18:00:00 21.2 4 Sudeste 8 Sudeste -- -- -- 73
2020-06-09 17:00:00 22.1 4 Sudeste 8 Sudeste -- -- -- 70
2020-06-09 16:00:00 22.8 3 Sudeste 7 Sudoeste -- -- -- 68
2020-06-09 15:00:00 22.8 4 Sudeste 10 Sudeste -- -- -- 69
2020-06-09 14:00:00 23.9 3 Sudeste 9 Este -- -- -- 68
2020-06-09 13:00:00 23 4 Este 12 Sudeste -- -- -- 69
2020-06-09 12:00:00 22.6 4 Sudeste 9 Este -- -- -- 69
2020-06-09 11:00:00 21.8 4 Sudoeste 8 Oeste -- -- -- 73
2020-06-09 10:00:00 20.7 4 Oeste 17 Oeste -- -- -- 79
2020-06-09 09:00:00 19 9 Oeste 22 Oeste -- -- -- 80
2020-06-09 08:00:00 18.4 11 Oeste 17 Oeste -- -- -- 82
2020-06-09 07:00:00 17.6 3 Oeste 6 Oeste -- -- -- 82
2020-06-09 06:00:00 17.9 5 Oeste 10 Noroeste -- -- -- 82
2020-06-09 05:00:00 17.7 5 Noroeste 11 Oeste -- -- -- 81
2020-06-09 04:00:00 17.7 6 Noroeste 18 Noroeste -- -- -- 80
2020-06-09 03:00:00 17.9 12 Oeste 23 Noroeste -- -- -- 80
2020-06-09 02:00:00 18 11 Oeste 20 Oeste -- -- -- 79
2020-06-09 01:00:00 18.4 7 Oeste 12 Oeste -- -- -- 77
2020-06-09 00:00:00 18.3 3 Sudeste 11 Este -- -- -- 76
2020-06-08 23:00:00 18.4 9 Este 15 Este -- -- -- 75
2020-06-08 22:00:00 18.7 3 Sudoeste 10 Sur -- -- -- 74
2020-06-08 21:00:00 19.2 3 Oeste 38 Noroeste -- -- -- 72
2020-06-08 20:00:00 19.8 18 Oeste 41 Noroeste -- -- -- 71
2020-06-08 19:00:00 20.2 24 Oeste 46 Oeste -- -- -- 70
2020-06-08 18:00:00 20.7 20 Oeste 33 Oeste -- -- -- 68
2020-06-08 17:00:00 21.3 26 Oeste 43 Sudoeste -- -- -- 66
2020-06-08 16:00:00 21.6 27 Oeste 42 Oeste -- -- -- 64
2020-06-08 15:00:00 21.8 23 Oeste 42 Sudoeste -- -- -- 67
2020-06-08 14:00:00 21.8 16 Oeste 32 Sudoeste -- -- -- 68
2020-06-08 13:00:00 22.6 5 Sudoeste 26 Sudoeste -- -- -- 69
2020-06-08 12:00:00 22.2 7 Oeste 22 Oeste -- -- -- 72
2020-06-08 11:00:00 21.8 2 Sur 8 Este -- -- -- 75
2020-06-08 10:00:00 21 3 Sudeste 22 Noroeste -- -- -- 80
2020-06-08 09:00:00 19.5 10 Oeste 32 Noroeste -- -- -- 83
2020-06-08 08:00:00 18.5 17 Oeste 30 Noroeste -- -- -- 86
2020-06-08 07:00:00 18.1 15 Oeste 28 Oeste -- -- -- 86
2020-06-08 06:00:00 18.3 14 Oeste 33 Oeste -- -- -- 86
2020-06-08 05:00:00 18.3 19 Noroeste 38 Noroeste -- -- -- 85
2020-06-08 04:00:00 18.4 12 Noroeste 42 Noroeste -- -- -- 84
2020-06-08 03:00:00 18.4 22 Oeste 50 Noroeste -- -- -- 84
2020-06-08 02:00:00 18.4 24 Noroeste 47 Noroeste -- -- -- 84
2020-06-08 01:00:00 18.9 28 Oeste 52 Noroeste -- -- -- 84
2020-06-08 00:00:00 19.1 28 Oeste 52 Oeste -- -- -- 82